sensor_id;sensor_type;location;lat;lon;timestamp;P1;P2;P0
59546;PMS5003;45368;55.002;-1.592;2023-04-15T00:00:11;4;3;
59546;PMS5003;45368;55.002;-1.592;2023-04-15T00:02:40;4;4;
59546;PMS5003;45368;55.002;-1.592;2023-04-15T00:05:08;3;3;
59546;PMS5003;45368;55.002;-1.592;2023-04-15T00:07:35;4;4;
59546;PMS5003;45368;55.002;-1.592;2023-04-15T00:10:03;5;4;
59546;PMS5003;45368;55.002;-1.592;2023-04-15T00:12:31;4;3;
59546;PMS5003;45368;55.002;-1.592;2023-04-15T00:14:58;4;2;
59546;PMS5003;45368;55.002;-1.592;2023-04-15T00:17:24;4;4;
59546;PMS5003;45368;55.002;-1.592;2023-04-15T00:19:51;4;4;
59546;PMS5003;45368;55.002;-1.592;2023-04-15T00:22:19;3;3;
59546;PMS5003;45368;55.002;-1.592;2023-04-15T00:24:46;4;4;
59546;PMS5003;45368;55.002;-1.592;2023-04-15T00:27:13;7;6;
59546;PMS5003;45368;55.002;-1.592;2023-04-15T00:29:40;9;9;
59546;PMS5003;45368;55.002;-1.592;2023-04-15T00:32:07;5;5;
59546;PMS5003;45368;55.002;-1.592;2023-04-15T00:34:34;4;3;
59546;PMS5003;45368;55.002;-1.592;2023-04-15T00:37:01;6;4;
59546;PMS5003;45368;55.002;-1.592;2023-04-15T00:39:29;5;5;
59546;PMS5003;45368;55.002;-1.592;2023-04-15T00:41:57;3;3;
59546;PMS5003;45368;55.002;-1.592;2023-04-15T00:44:23;7;6;
59546;PMS5003;45368;55.002;-1.592;2023-04-15T00:46:50;5;5;
59546;PMS5003;45368;55.002;-1.592;2023-04-15T00:49:17;6;6;
59546;PMS5003;45368;55.002;-1.592;2023-04-15T00:51:44;7;5;
59546;PMS5003;45368;55.002;-1.592;2023-04-15T00:54:12;5;4;
59546;PMS5003;45368;55.002;-1.592;2023-04-15T00:56:39;4;4;
59546;PMS5003;45368;55.002;-1.592;2023-04-15T00:59:07;5;5;
59546;PMS5003;45368;55.002;-1.592;2023-04-15T01:01:35;4;4;
59546;PMS5003;45368;55.002;-1.592;2023-04-15T01:04:02;3;3;
59546;PMS5003;45368;55.002;-1.592;2023-04-15T01:06:30;4;2;
59546;PMS5003;45368;55.002;-1.592;2023-04-15T01:08:58;4;3;
59546;PMS5003;45368;55.002;-1.592;2023-04-15T01:11:26;3;3;
59546;PMS5003;45368;55.002;-1.592;2023-04-15T01:13:54;3;3;
59546;PMS5003;45368;55.002;-1.592;2023-04-15T01:16:24;5;4;
59546;PMS5003;45368;55.002;-1.592;2023-04-15T01:18:52;4;3;
59546;PMS5003;45368;55.002;-1.592;2023-04-15T01:21:19;3;3;
59546;PMS5003;45368;55.002;-1.592;2023-04-15T01:23:47;6;5;
59546;PMS5003;45368;55.002;-1.592;2023-04-15T01:26:16;3;3;
59546;PMS5003;45368;55.002;-1.592;2023-04-15T01:28:43;4;4;
59546;PMS5003;45368;55.002;-1.592;2023-04-15T01:31:11;4;4;
59546;PMS5003;45368;55.002;-1.592;2023-04-15T01:33:40;5;4;
59546;PMS5003;45368;55.002;-1.592;2023-04-15T01:36:08;4;4;
59546;PMS5003;45368;55.002;-1.592;2023-04-15T01:38:36;4;4;
59546;PMS5003;45368;55.002;-1.592;2023-04-15T01:41:03;5;5;
59546;PMS5003;45368;55.002;-1.592;2023-04-15T01:43:31;6;4;
59546;PMS5003;45368;55.002;-1.592;2023-04-15T01:45:58;6;5;
59546;PMS5003;45368;55.002;-1.592;2023-04-15T01:48:25;2;2;
59546;PMS5003;45368;55.002;-1.592;2023-04-15T01:50:53;3;3;
59546;PMS5003;45368;55.002;-1.592;2023-04-15T01:53:21;4;4;
59546;PMS5003;45368;55.002;-1.592;2023-04-15T01:55:49;3;3;
59546;PMS5003;45368;55.002;-1.592;2023-04-15T01:58:17;4;4;
59546;PMS5003;45368;55.002;-1.592;2023-04-15T02:00:44;3;3;
59546;PMS5003;45368;55.002;-1.592;2023-04-15T02:03:11;4;4;
59546;PMS5003;45368;55.002;-1.592;2023-04-15T02:05:39;5;5;
59546;PMS5003;45368;55.002;-1.592;2023-04-15T02:08:06;5;5;
59546;PMS5003;45368;55.002;-1.592;2023-04-15T02:10:33;5;4;
59546;PMS5003;45368;55.002;-1.592;2023-04-15T02:13:00;6;4;
59546;PMS5003;45368;55.002;-1.592;2023-04-15T02:15:28;4;4;
59546;PMS5003;45368;55.002;-1.592;2023-04-15T02:17:55;5;4;
59546;PMS5003;45368;55.002;-1.592;2023-04-15T02:20:22;4;4;
59546;PMS5003;45368;55.002;-1.592;2023-04-15T02:22:50;3;3;
59546;PMS5003;45368;55.002;-1.592;2023-04-15T02:25:18;3;3;
59546;PMS5003;45368;55.002;-1.592;2023-04-15T02:27:45;4;4;
59546;PMS5003;45368;55.002;-1.592;2023-04-15T02:30:13;3;3;
59546;PMS5003;45368;55.002;-1.592;2023-04-15T02:32:41;4;4;
59546;PMS5003;45368;55.002;-1.592;2023-04-15T02:35:08;5;5;
59546;PMS5003;45368;55.002;-1.592;2023-04-15T02:37:36;3;3;
59546;PMS5003;45368;55.002;-1.592;2023-04-15T02:40:04;4;4;
59546;PMS5003;45368;55.002;-1.592;2023-04-15T02:42:33;3;3;
59546;PMS5003;45368;55.002;-1.592;2023-04-15T02:45:00;5;4;
59546;PMS5003;45368;55.002;-1.592;2023-04-15T02:47:27;4;4;
59546;PMS5003;45368;55.002;-1.592;2023-04-15T02:49:54;5;4;
59546;PMS5003;45368;55.002;-1.592;2023-04-15T02:52:21;4;4;
59546;PMS5003;45368;55.002;-1.592;2023-04-15T02:54:48;5;4;
59546;PMS5003;45368;55.002;-1.592;2023-04-15T02:57:15;7;4;
59546;PMS5003;45368;55.002;-1.592;2023-04-15T02:59:42;5;4;
59546;PMS5003;45368;55.002;-1.592;2023-04-15T03:02:09;4;3;
59546;PMS5003;45368;55.002;-1.592;2023-04-15T03:04:36;6;5;
59546;PMS5003;45368;55.002;-1.592;2023-04-15T03:07:03;5;4;
59546;PMS5003;45368;55.002;-1.592;2023-04-15T03:09:31;3;3;
59546;PMS5003;45368;55.002;-1.592;2023-04-15T03:11:58;5;4;
59546;PMS5003;45368;55.002;-1.592;2023-04-15T03:14:25;3;2;
59546;PMS5003;45368;55.002;-1.592;2023-04-15T03:16:52;6;5;
59546;PMS5003;45368;55.002;-1.592;2023-04-15T03:19:20;7;5;
59546;PMS5003;45368;55.002;-1.592;2023-04-15T03:21:46;4;4;
59546;PMS5003;45368;55.002;-1.592;2023-04-15T03:24:13;6;5;
59546;PMS5003;45368;55.002;-1.592;2023-04-15T03:26:40;4;4;
59546;PMS5003;45368;55.002;-1.592;2023-04-15T03:29:07;4;4;
59546;PMS5003;45368;55.002;-1.592;2023-04-15T03:31:34;4;4;
59546;PMS5003;45368;55.002;-1.592;2023-04-15T03:34:01;7;5;
59546;PMS5003;45368;55.002;-1.592;2023-04-15T03:36:29;8;8;
59546;PMS5003;45368;55.002;-1.592;2023-04-15T03:38:57;5;5;
59546;PMS5003;45368;55.002;-1.592;2023-04-15T03:41:24;3;3;
59546;PMS5003;45368;55.002;-1.592;2023-04-15T03:43:51;7;6;
59546;PMS5003;45368;55.002;-1.592;2023-04-15T03:46:18;5;5;
59546;PMS5003;45368;55.002;-1.592;2023-04-15T03:48:45;5;5;
59546;PMS5003;45368;55.002;-1.592;2023-04-15T03:51:13;5;5;
59546;PMS5003;45368;55.002;-1.592;2023-04-15T03:53:40;4;4;
59546;PMS5003;45368;55.002;-1.592;2023-04-15T03:56:12;5;5;
59546;PMS5003;45368;55.002;-1.592;2023-04-15T03:58:39;7;7;
59546;PMS5003;45368;55.002;-1.592;2023-04-15T04:01:06;5;4;
59546;PMS5003;45368;55.002;-1.592;2023-04-15T04:03:33;6;5;
59546;PMS5003;45368;55.002;-1.592;2023-04-15T04:06:01;5;5;
59546;PMS5003;45368;55.002;-1.592;2023-04-15T04:08:28;4;4;
59546;PMS5003;45368;55.002;-1.592;2023-04-15T04:10:55;6;4;
59546;PMS5003;45368;55.002;-1.592;2023-04-15T04:13:22;5;5;
59546;PMS5003;45368;55.002;-1.592;2023-04-15T04:15:49;4;4;
59546;PMS5003;45368;55.002;-1.592;2023-04-15T04:18:16;6;5;
59546;PMS5003;45368;55.002;-1.592;2023-04-15T04:20:42;7;6;
59546;PMS5003;45368;55.002;-1.592;2023-04-15T04:23:11;5;4;
59546;PMS5003;45368;55.002;-1.592;2023-04-15T04:25:39;4;4;
59546;PMS5003;45368;55.002;-1.592;2023-04-15T04:28:06;6;6;
59546;PMS5003;45368;55.002;-1.592;2023-04-15T04:30:34;8;6;
59546;PMS5003;45368;55.002;-1.592;2023-04-15T04:33:01;6;4;
59546;PMS5003;45368;55.002;-1.592;2023-04-15T04:35:28;5;5;
59546;PMS5003;45368;55.002;-1.592;2023-04-15T04:37:55;5;4;
59546;PMS5003;45368;55.002;-1.592;2023-04-15T04:40:22;6;5;
59546;PMS5003;45368;55.002;-1.592;2023-04-15T04:42:49;6;6;
59546;PMS5003;45368;55.002;-1.592;2023-04-15T04:45:16;6;5;
59546;PMS5003;45368;55.002;-1.592;2023-04-15T04:47:43;5;5;
59546;PMS5003;45368;55.002;-1.592;2023-04-15T04:50:11;5;5;
59546;PMS5003;45368;55.002;-1.592;2023-04-15T04:52:38;6;6;
59546;PMS5003;45368;55.002;-1.592;2023-04-15T04:55:05;6;5;
59546;PMS5003;45368;55.002;-1.592;2023-04-15T04:57:33;6;6;
59546;PMS5003;45368;55.002;-1.592;2023-04-15T05:00:00;8;7;
59546;PMS5003;45368;55.002;-1.592;2023-04-15T05:02:28;6;6;
59546;PMS5003;45368;55.002;-1.592;2023-04-15T05:04:55;6;5;
59546;PMS5003;45368;55.002;-1.592;2023-04-15T05:07:22;8;7;
59546;PMS5003;45368;55.002;-1.592;2023-04-15T05:09:49;5;5;
59546;PMS5003;45368;55.002;-1.592;2023-04-15T05:12:16;5;4;
59546;PMS5003;45368;55.002;-1.592;2023-04-15T05:14:43;4;4;
59546;PMS5003;45368;55.002;-1.592;2023-04-15T05:17:11;7;6;
59546;PMS5003;45368;55.002;-1.592;2023-04-15T05:19:38;7;7;
59546;PMS5003;45368;55.002;-1.592;2023-04-15T05:22:06;5;5;
59546;PMS5003;45368;55.002;-1.592;2023-04-15T05:24:33;9;7;
59546;PMS5003;45368;55.002;-1.592;2023-04-15T05:27:00;6;5;
59546;PMS5003;45368;55.002;-1.592;2023-04-15T05:29:27;4;4;
59546;PMS5003;45368;55.002;-1.592;2023-04-15T05:31:55;7;7;
59546;PMS5003;45368;55.002;-1.592;2023-04-15T05:34:23;7;6;
59546;PMS5003;45368;55.002;-1.592;2023-04-15T05:36:50;8;7;
59546;PMS5003;45368;55.002;-1.592;2023-04-15T05:39:17;5;5;
59546;PMS5003;45368;55.002;-1.592;2023-04-15T05:41:44;8;7;
59546;PMS5003;45368;55.002;-1.592;2023-04-15T05:44:11;8;7;
59546;PMS5003;45368;55.002;-1.592;2023-04-15T05:46:39;7;7;
59546;PMS5003;45368;55.002;-1.592;2023-04-15T05:49:07;9;9;
59546;PMS5003;45368;55.002;-1.592;2023-04-15T05:51:34;6;6;
59546;PMS5003;45368;55.002;-1.592;2023-04-15T05:54:01;7;7;
59546;PMS5003;45368;55.002;-1.592;2023-04-15T05:56:28;11;9;
59546;PMS5003;45368;55.002;-1.592;2023-04-15T05:58:55;9;8;
59546;PMS5003;45368;55.002;-1.592;2023-04-15T06:01:22;8;7;
59546;PMS5003;45368;55.002;-1.592;2023-04-15T06:03:50;7;7;
59546;PMS5003;45368;55.002;-1.592;2023-04-15T06:06:17;7;6;
59546;PMS5003;45368;55.002;-1.592;2023-04-15T06:08:44;9;6;
59546;PMS5003;45368;55.002;-1.592;2023-04-15T06:11:12;7;7;
59546;PMS5003;45368;55.002;-1.592;2023-04-15T06:13:40;9;9;
59546;PMS5003;45368;55.002;-1.592;2023-04-15T06:16:07;5;5;
59546;PMS5003;45368;55.002;-1.592;2023-04-15T06:18:33;7;7;
59546;PMS5003;45368;55.002;-1.592;2023-04-15T06:21:00;8;7;
59546;PMS5003;45368;55.002;-1.592;2023-04-15T06:23:27;9;8;
59546;PMS5003;45368;55.002;-1.592;2023-04-15T06:25:55;9;8;
59546;PMS5003;45368;55.002;-1.592;2023-04-15T06:28:22;9;9;
59546;PMS5003;45368;55.002;-1.592;2023-04-15T06:30:49;9;8;
59546;PMS5003;45368;55.002;-1.592;2023-04-15T06:33:16;9;8;
59546;PMS5003;45368;55.002;-1.592;2023-04-15T06:35:43;9;9;
59546;PMS5003;45368;55.002;-1.592;2023-04-15T06:38:10;10;8;
59546;PMS5003;45368;55.002;-1.592;2023-04-15T06:40:38;8;8;
59546;PMS5003;45368;55.002;-1.592;2023-04-15T06:43:05;6;6;
59546;PMS5003;45368;55.002;-1.592;2023-04-15T06:45:32;7;7;
59546;PMS5003;45368;55.002;-1.592;2023-04-15T06:47:59;7;6;
59546;PMS5003;45368;55.002;-1.592;2023-04-15T06:50:26;9;9;
59546;PMS5003;45368;55.002;-1.592;2023-04-15T06:52:54;10;8;
59546;PMS5003;45368;55.002;-1.592;2023-04-15T06:55:22;10;9;
59546;PMS5003;45368;55.002;-1.592;2023-04-15T06:57:49;8;8;
59546;PMS5003;45368;55.002;-1.592;2023-04-15T07:00:16;11;10;
59546;PMS5003;45368;55.002;-1.592;2023-04-15T07:02:44;10;9;
59546;PMS5003;45368;55.002;-1.592;2023-04-15T07:05:11;9;9;
59546;PMS5003;45368;55.002;-1.592;2023-04-15T07:07:39;10;10;
59546;PMS5003;45368;55.002;-1.592;2023-04-15T07:10:07;13;11;
59546;PMS5003;45368;55.002;-1.592;2023-04-15T07:12:35;14;14;
59546;PMS5003;45368;55.002;-1.592;2023-04-15T07:15:02;15;15;
59546;PMS5003;45368;55.002;-1.592;2023-04-15T07:17:29;17;15;
59546;PMS5003;45368;55.002;-1.592;2023-04-15T07:19:56;12;12;
59546;PMS5003;45368;55.002;-1.592;2023-04-15T07:22:23;18;16;
59546;PMS5003;45368;55.002;-1.592;2023-04-15T07:24:50;19;17;
59546;PMS5003;45368;55.002;-1.592;2023-04-15T07:27:18;13;12;
59546;PMS5003;45368;55.002;-1.592;2023-04-15T07:29:45;16;14;
59546;PMS5003;45368;55.002;-1.592;2023-04-15T07:32:13;17;15;
59546;PMS5003;45368;55.002;-1.592;2023-04-15T07:34:40;19;17;
59546;PMS5003;45368;55.002;-1.592;2023-04-15T07:37:08;20;20;
59546;PMS5003;45368;55.002;-1.592;2023-04-15T07:39:35;23;21;
59546;PMS5003;45368;55.002;-1.592;2023-04-15T07:42:02;21;19;
59546;PMS5003;45368;55.002;-1.592;2023-04-15T07:44:29;21;19;
59546;PMS5003;45368;55.002;-1.592;2023-04-15T07:46:57;18;16;
59546;PMS5003;45368;55.002;-1.592;2023-04-15T07:49:24;20;19;
59546;PMS5003;45368;55.002;-1.592;2023-04-15T07:51:51;19;17;
59546;PMS5003;45368;55.002;-1.592;2023-04-15T07:54:19;17;13;
59546;PMS5003;45368;55.002;-1.592;2023-04-15T07:56:46;15;14;
59546;PMS5003;45368;55.002;-1.592;2023-04-15T07:59:13;16;16;
59546;PMS5003;45368;55.002;-1.592;2023-04-15T08:01:41;23;20;
59546;PMS5003;45368;55.002;-1.592;2023-04-15T08:04:09;15;14;
59546;PMS5003;45368;55.002;-1.592;2023-04-15T08:06:37;16;14;
59546;PMS5003;45368;55.002;-1.592;2023-04-15T08:09:04;16;15;
59546;PMS5003;45368;55.002;-1.592;2023-04-15T08:11:31;16;15;
59546;PMS5003;45368;55.002;-1.592;2023-04-15T08:13:59;11;10;
59546;PMS5003;45368;55.002;-1.592;2023-04-15T08:16:27;14;13;
59546;PMS5003;45368;55.002;-1.592;2023-04-15T08:18:54;12;10;
59546;PMS5003;45368;55.002;-1.592;2023-04-15T08:21:22;12;11;
59546;PMS5003;45368;55.002;-1.592;2023-04-15T08:23:50;12;11;
59546;PMS5003;45368;55.002;-1.592;2023-04-15T08:26:19;11;10;
59546;PMS5003;45368;55.002;-1.592;2023-04-15T08:28:47;11;11;
59546;PMS5003;45368;55.002;-1.592;2023-04-15T08:31:15;11;10;
59546;PMS5003;45368;55.002;-1.592;2023-04-15T08:33:43;11;10;
59546;PMS5003;45368;55.002;-1.592;2023-04-15T08:36:11;12;11;
59546;PMS5003;45368;55.002;-1.592;2023-04-15T08:38:38;12;8;
59546;PMS5003;45368;55.002;-1.592;2023-04-15T08:41:06;14;10;
59546;PMS5003;45368;55.002;-1.592;2023-04-15T08:43:39;9;9;
59546;PMS5003;45368;55.002;-1.592;2023-04-15T08:46:14;11;11;
59546;PMS5003;45368;55.002;-1.592;2023-04-15T08:48:41;11;10;
59546;PMS5003;45368;55.002;-1.592;2023-04-15T08:51:09;10;10;
59546;PMS5003;45368;55.002;-1.592;2023-04-15T08:53:37;17;13;
59546;PMS5003;45368;55.002;-1.592;2023-04-15T08:56:04;14;13;
59546;PMS5003;45368;55.002;-1.592;2023-04-15T08:58:35;10;10;
59546;PMS5003;45368;55.002;-1.592;2023-04-15T09:01:02;15;13;
59546;PMS5003;45368;55.002;-1.592;2023-04-15T09:03:30;11;11;
59546;PMS5003;45368;55.002;-1.592;2023-04-15T09:05:57;15;13;
59546;PMS5003;45368;55.002;-1.592;2023-04-15T09:08:25;18;14;
59546;PMS5003;45368;55.002;-1.592;2023-04-15T09:10:53;12;11;
59546;PMS5003;45368;55.002;-1.592;2023-04-15T09:13:20;13;11;
59546;PMS5003;45368;55.002;-1.592;2023-04-15T09:15:47;8;7;
59546;PMS5003;45368;55.002;-1.592;2023-04-15T09:18:26;10;10;
59546;PMS5003;45368;55.002;-1.592;2023-04-15T09:20:54;14;12;
59546;PMS5003;45368;55.002;-1.592;2023-04-15T09:23:22;12;12;
59546;PMS5003;45368;55.002;-1.592;2023-04-15T09:25:49;14;12;
59546;PMS5003;45368;55.002;-1.592;2023-04-15T09:28:22;12;11;
59546;PMS5003;45368;55.002;-1.592;2023-04-15T09:30:50;13;9;
59546;PMS5003;45368;55.002;-1.592;2023-04-15T09:33:21;13;12;
59546;PMS5003;45368;55.002;-1.592;2023-04-15T09:35:57;12;11;
59546;PMS5003;45368;55.002;-1.592;2023-04-15T09:38:26;14;14;
59546;PMS5003;45368;55.002;-1.592;2023-04-15T09:40:53;13;12;
59546;PMS5003;45368;55.002;-1.592;2023-04-15T09:43:20;16;15;
59546;PMS5003;45368;55.002;-1.592;2023-04-15T09:45:49;13;11;
59546;PMS5003;45368;55.002;-1.592;2023-04-15T09:48:18;12;11;
59546;PMS5003;45368;55.002;-1.592;2023-04-15T09:50:47;15;13;
59546;PMS5003;45368;55.002;-1.592;2023-04-15T09:53:16;13;11;
59546;PMS5003;45368;55.002;-1.592;2023-04-15T09:55:44;9;9;
59546;PMS5003;45368;55.002;-1.592;2023-04-15T09:58:18;12;11;
59546;PMS5003;45368;55.002;-1.592;2023-04-15T10:00:47;9;9;
59546;PMS5003;45368;55.002;-1.592;2023-04-15T10:03:17;9;9;
59546;PMS5003;45368;55.002;-1.592;2023-04-15T10:05:46;10;10;
59546;PMS5003;45368;55.002;-1.592;2023-04-15T10:08:15;14;14;
59546;PMS5003;45368;55.002;-1.592;2023-04-15T10:10:44;12;10;
59546;PMS5003;45368;55.002;-1.592;2023-04-15T10:13:13;9;8;
59546;PMS5003;45368;55.002;-1.592;2023-04-15T10:15:43;13;12;
59546;PMS5003;45368;55.002;-1.592;2023-04-15T10:18:16;13;12;
59546;PMS5003;45368;55.002;-1.592;2023-04-15T10:20:46;14;13;
59546;PMS5003;45368;55.002;-1.592;2023-04-15T10:23:14;13;13;
59546;PMS5003;45368;55.002;-1.592;2023-04-15T10:25:42;11;10;
59546;PMS5003;45368;55.002;-1.592;2023-04-15T10:28:09;11;10;
59546;PMS5003;45368;55.002;-1.592;2023-04-15T10:30:39;10;7;
59546;PMS5003;45368;55.002;-1.592;2023-04-15T10:33:06;9;9;
59546;PMS5003;45368;55.002;-1.592;2023-04-15T10:35:35;12;9;
59546;PMS5003;45368;55.002;-1.592;2023-04-15T10:38:07;11;8;
59546;PMS5003;45368;55.002;-1.592;2023-04-15T10:41:10;9;9;
59546;PMS5003;45368;55.002;-1.592;2023-04-15T10:43:39;12;9;
59546;PMS5003;45368;55.002;-1.592;2023-04-15T10:46:11;9;9;
59546;PMS5003;45368;55.002;-1.592;2023-04-15T10:48:38;10;10;
59546;PMS5003;45368;55.002;-1.592;2023-04-15T10:51:14;11;9;
59546;PMS5003;45368;55.002;-1.592;2023-04-15T10:53:41;10;10;
59546;PMS5003;45368;55.002;-1.592;2023-04-15T10:56:08;10;9;
59546;PMS5003;45368;55.002;-1.592;2023-04-15T10:58:43;12;10;
59546;PMS5003;45368;55.002;-1.592;2023-04-15T11:01:10;8;8;
59546;PMS5003;45368;55.002;-1.592;2023-04-15T11:03:39;6;6;
59546;PMS5003;45368;55.002;-1.592;2023-04-15T11:06:08;10;6;
59546;PMS5003;45368;55.002;-1.592;2023-04-15T11:09:07;7;6;
59546;PMS5003;45368;55.002;-1.592;2023-04-15T11:12:04;4;3;
59546;PMS5003;45368;55.002;-1.592;2023-04-15T11:14:33;4;4;
59546;PMS5003;45368;55.002;-1.592;2023-04-15T11:17:05;7;5;
59546;PMS5003;45368;55.002;-1.592;2023-04-15T11:19:35;4;4;
59546;PMS5003;45368;55.002;-1.592;2023-04-15T11:22:07;7;6;
59546;PMS5003;45368;55.002;-1.592;2023-04-15T11:24:35;7;6;
59546;PMS5003;45368;55.002;-1.592;2023-04-15T11:27:19;7;6;
59546;PMS5003;45368;55.002;-1.592;2023-04-15T11:29:47;8;6;
59546;PMS5003;45368;55.002;-1.592;2023-04-15T11:32:15;6;5;
59546;PMS5003;45368;55.002;-1.592;2023-04-15T11:34:44;6;5;
59546;PMS5003;45368;55.002;-1.592;2023-04-15T11:37:11;6;5;
59546;PMS5003;45368;55.002;-1.592;2023-04-15T11:39:38;6;5;
59546;PMS5003;45368;55.002;-1.592;2023-04-15T11:42:15;4;4;
59546;PMS5003;45368;55.002;-1.592;2023-04-15T11:44:42;7;6;
59546;PMS5003;45368;55.002;-1.592;2023-04-15T11:47:21;4;3;
59546;PMS5003;45368;55.002;-1.592;2023-04-15T11:49:48;5;5;
59546;PMS5003;45368;55.002;-1.592;2023-04-15T11:52:16;5;5;
59546;PMS5003;45368;55.002;-1.592;2023-04-15T11:54:44;8;6;
59546;PMS5003;45368;55.002;-1.592;2023-04-15T11:57:11;8;6;
59546;PMS5003;45368;55.002;-1.592;2023-04-15T11:59:40;6;6;
59546;PMS5003;45368;55.002;-1.592;2023-04-15T12:02:10;8;7;
59546;PMS5003;45368;55.002;-1.592;2023-04-15T12:04:38;6;6;
59546;PMS5003;45368;55.002;-1.592;2023-04-15T12:07:05;7;5;
59546;PMS5003;45368;55.002;-1.592;2023-04-15T12:09:36;5;5;
59546;PMS5003;45368;55.002;-1.592;2023-04-15T12:12:03;5;3;
59546;PMS5003;45368;55.002;-1.592;2023-04-15T12:14:31;4;4;
59546;PMS5003;45368;55.002;-1.592;2023-04-15T12:16:59;5;3;
59546;PMS5003;45368;55.002;-1.592;2023-04-15T12:19:28;3;3;
59546;PMS5003;45368;55.002;-1.592;2023-04-15T12:21:57;8;4;
59546;PMS5003;45368;55.002;-1.592;2023-04-15T12:24:24;4;3;
59546;PMS5003;45368;55.002;-1.592;2023-04-15T12:26:53;4;3;
59546;PMS5003;45368;55.002;-1.592;2023-04-15T12:29:24;7;5;
59546;PMS5003;45368;55.002;-1.592;2023-04-15T12:31:53;6;4;
59546;PMS5003;45368;55.002;-1.592;2023-04-15T12:34:25;3;3;
59546;PMS5003;45368;55.002;-1.592;2023-04-15T12:36:53;3;3;
59546;PMS5003;45368;55.002;-1.592;2023-04-15T12:39:21;3;3;
59546;PMS5003;45368;55.002;-1.592;2023-04-15T12:41:51;3;3;
59546;PMS5003;45368;55.002;-1.592;2023-04-15T12:44:18;4;2;
59546;PMS5003;45368;55.002;-1.592;2023-04-15T12:46:48;4;4;
59546;PMS5003;45368;55.002;-1.592;2023-04-15T12:49:16;3;3;
59546;PMS5003;45368;55.002;-1.592;2023-04-15T12:51:44;5;4;
59546;PMS5003;45368;55.002;-1.592;2023-04-15T12:54:11;2;2;
59546;PMS5003;45368;55.002;-1.592;2023-04-15T12:56:38;4;3;
59546;PMS5003;45368;55.002;-1.592;2023-04-15T12:59:05;3;3;
59546;PMS5003;45368;55.002;-1.592;2023-04-15T13:01:32;3;3;
59546;PMS5003;45368;55.002;-1.592;2023-04-15T13:04:00;2;1;
59546;PMS5003;45368;55.002;-1.592;2023-04-15T13:06:27;3;3;
59546;PMS5003;45368;55.002;-1.592;2023-04-15T13:08:54;5;4;
59546;PMS5003;45368;55.002;-1.592;2023-04-15T13:11:22;4;4;
59546;PMS5003;45368;55.002;-1.592;2023-04-15T13:13:49;4;4;
59546;PMS5003;45368;55.002;-1.592;2023-04-15T13:16:17;4;4;
59546;PMS5003;45368;55.002;-1.592;2023-04-15T13:18:45;6;5;
59546;PMS5003;45368;55.002;-1.592;2023-04-15T13:21:12;4;4;
59546;PMS5003;45368;55.002;-1.592;2023-04-15T13:23:40;6;5;
59546;PMS5003;45368;55.002;-1.592;2023-04-15T13:26:08;7;4;
59546;PMS5003;45368;55.002;-1.592;2023-04-15T13:28:36;6;4;
59546;PMS5003;45368;55.002;-1.592;2023-04-15T13:31:04;9;9;
59546;PMS5003;45368;55.002;-1.592;2023-04-15T13:33:31;12;8;
59546;PMS5003;45368;55.002;-1.592;2023-04-15T13:35:59;7;7;
59546;PMS5003;45368;55.002;-1.592;2023-04-15T13:38:26;10;6;
59546;PMS5003;45368;55.002;-1.592;2023-04-15T13:40:53;6;5;
59546;PMS5003;45368;55.002;-1.592;2023-04-15T13:43:20;5;5;
59546;PMS5003;45368;55.002;-1.592;2023-04-15T13:45:47;5;5;
59546;PMS5003;45368;55.002;-1.592;2023-04-15T13:48:14;6;6;
59546;PMS5003;45368;55.002;-1.592;2023-04-15T13:50:41;9;7;
59546;PMS5003;45368;55.002;-1.592;2023-04-15T13:53:08;7;7;
59546;PMS5003;45368;55.002;-1.592;2023-04-15T13:55:35;4;4;
59546;PMS5003;45368;55.002;-1.592;2023-04-15T13:58:02;7;7;
59546;PMS5003;45368;55.002;-1.592;2023-04-15T14:00:29;5;5;
59546;PMS5003;45368;55.002;-1.592;2023-04-15T14:02:57;6;6;
59546;PMS5003;45368;55.002;-1.592;2023-04-15T14:05:24;5;5;
59546;PMS5003;45368;55.002;-1.592;2023-04-15T14:07:52;7;6;
59546;PMS5003;45368;55.002;-1.592;2023-04-15T14:10:18;8;7;
59546;PMS5003;45368;55.002;-1.592;2023-04-15T14:12:46;11;7;
59546;PMS5003;45368;55.002;-1.592;2023-04-15T14:15:13;5;3;
59546;PMS5003;45368;55.002;-1.592;2023-04-15T14:17:41;5;4;
59546;PMS5003;45368;55.002;-1.592;2023-04-15T14:20:09;7;6;
59546;PMS5003;45368;55.002;-1.592;2023-04-15T14:22:36;6;4;
59546;PMS5003;45368;55.002;-1.592;2023-04-15T14:25:03;4;4;
59546;PMS5003;45368;55.002;-1.592;2023-04-15T14:27:32;2;2;
59546;PMS5003;45368;55.002;-1.592;2023-04-15T14:29:59;6;5;
59546;PMS5003;45368;55.002;-1.592;2023-04-15T14:32:27;8;5;
59546;PMS5003;45368;55.002;-1.592;2023-04-15T14:34:55;6;4;
59546;PMS5003;45368;55.002;-1.592;2023-04-15T14:37:22;8;7;
59546;PMS5003;45368;55.002;-1.592;2023-04-15T14:39:50;7;6;
59546;PMS5003;45368;55.002;-1.592;2023-04-15T14:42:18;4;3;
59546;PMS5003;45368;55.002;-1.592;2023-04-15T14:44:44;5;5;
59546;PMS5003;45368;55.002;-1.592;2023-04-15T14:47:11;7;6;
59546;PMS5003;45368;55.002;-1.592;2023-04-15T14:49:39;6;5;
59546;PMS5003;45368;55.002;-1.592;2023-04-15T14:52:06;9;9;
59546;PMS5003;45368;55.002;-1.592;2023-04-15T14:54:33;6;5;
59546;PMS5003;45368;55.002;-1.592;2023-04-15T14:57:03;5;5;
59546;PMS5003;45368;55.002;-1.592;2023-04-15T14:59:30;4;4;
59546;PMS5003;45368;55.002;-1.592;2023-04-15T15:01:57;8;7;
59546;PMS5003;45368;55.002;-1.592;2023-04-15T15:04:25;9;8;
59546;PMS5003;45368;55.002;-1.592;2023-04-15T15:06:52;6;5;
59546;PMS5003;45368;55.002;-1.592;2023-04-15T15:09:20;3;3;
59546;PMS5003;45368;55.002;-1.592;2023-04-15T15:11:47;7;6;
59546;PMS5003;45368;55.002;-1.592;2023-04-15T15:14:14;6;5;
59546;PMS5003;45368;55.002;-1.592;2023-04-15T15:16:42;9;6;
59546;PMS5003;45368;55.002;-1.592;2023-04-15T15:19:10;8;5;
59546;PMS5003;45368;55.002;-1.592;2023-04-15T15:21:38;5;5;
59546;PMS5003;45368;55.002;-1.592;2023-04-15T15:24:05;3;3;
59546;PMS5003;45368;55.002;-1.592;2023-04-15T15:26:32;5;5;
59546;PMS5003;45368;55.002;-1.592;2023-04-15T15:28:59;6;4;
59546;PMS5003;45368;55.002;-1.592;2023-04-15T15:31:26;5;5;
59546;PMS5003;45368;55.002;-1.592;2023-04-15T15:33:53;5;5;
59546;PMS5003;45368;55.002;-1.592;2023-04-15T15:36:20;5;4;
59546;PMS5003;45368;55.002;-1.592;2023-04-15T15:38:47;6;6;
59546;PMS5003;45368;55.002;-1.592;2023-04-15T15:41:15;6;6;
59546;PMS5003;45368;55.002;-1.592;2023-04-15T15:43:42;9;8;
59546;PMS5003;45368;55.002;-1.592;2023-04-15T15:46:09;8;8;
59546;PMS5003;45368;55.002;-1.592;2023-04-15T15:48:36;7;6;
59546;PMS5003;45368;55.002;-1.592;2023-04-15T15:51:04;8;7;
59546;PMS5003;45368;55.002;-1.592;2023-04-15T15:53:33;7;7;
59546;PMS5003;45368;55.002;-1.592;2023-04-15T15:56:00;7;7;
59546;PMS5003;45368;55.002;-1.592;2023-04-15T15:58:28;7;7;
59546;PMS5003;45368;55.002;-1.592;2023-04-15T16:00:55;6;5;
59546;PMS5003;45368;55.002;-1.592;2023-04-15T16:03:23;8;6;
59546;PMS5003;45368;55.002;-1.592;2023-04-15T16:05:50;8;7;
59546;PMS5003;45368;55.002;-1.592;2023-04-15T16:08:17;7;7;
59546;PMS5003;45368;55.002;-1.592;2023-04-15T16:10:45;7;6;
59546;PMS5003;45368;55.002;-1.592;2023-04-15T16:13:13;8;6;
59546;PMS5003;45368;55.002;-1.592;2023-04-15T16:15:40;5;5;
59546;PMS5003;45368;55.002;-1.592;2023-04-15T16:18:07;6;5;
59546;PMS5003;45368;55.002;-1.592;2023-04-15T16:20:34;8;8;
59546;PMS5003;45368;55.002;-1.592;2023-04-15T16:23:01;9;7;
59546;PMS5003;45368;55.002;-1.592;2023-04-15T16:25:36;5;5;
59546;PMS5003;45368;55.002;-1.592;2023-04-15T16:28:04;6;4;
59546;PMS5003;45368;55.002;-1.592;2023-04-15T16:30:33;7;6;